Time;durP1;ratioP1;P1;durP2;ratioP2;P2;SDS_P1;SDS_P2;PMS_P1;PMS_P2;Temp;Humidity;BMP_temperature;BMP_pressure;BME280_temperature;BME280_humidity;BME280_pressure;Samples;Min_cycle;Max_cycle;Signal;HPM_P1;HPM_P2
2021/05/07 00:00:57;;;;;;;4.40;3.13;;;;;;;;;;5043318;28;20052;-83
2021/05/07 00:03:23;;;;;;;4.43;3.30;;;;;;;;;;5041667;28;20028;-83
2021/05/07 00:05:54;;;;;;;5.60;3.38;;;;;;;;;;5036127;28;20431;-83
2021/05/07 00:08:27;;;;;;;4.05;3.55;;;;;;;;;;5070270;28;20040;-83
2021/05/07 00:10:53;;;;;;;6.97;3.22;;;;;;;;;;5045032;28;20032;-83
2021/05/07 00:13:19;;;;;;;4.82;3.33;;;;;;;;;;5061910;28;20021;-83
2021/05/07 00:15:45;;;;;;;6.65;3.72;;;;;;;;;;5052220;28;20123;-83
2021/05/07 00:18:11;;;;;;;8.10;3.70;;;;;;;;;;5052472;28;20025;-83
2021/05/07 00:20:37;;;;;;;7.45;4.15;;;;;;;;;;5056763;28;20028;-83
2021/05/07 00:23:03;;;;;;;8.30;4.10;;;;;;;;;;5050041;28;20470;-83
2021/05/07 00:25:29;;;;;;;4.85;3.83;;;;;;;;;;5054464;28;20029;-83
2021/05/07 00:28:02;;;;;;;4.90;3.15;;;;;;;;;;5069983;28;20025;-83
2021/05/07 00:30:28;;;;;;;4.57;3.47;;;;;;;;;;5052084;28;20036;-83
2021/05/07 00:32:54;;;;;;;5.72;3.85;;;;;;;;;;5058568;28;20480;-83
2021/05/07 00:35:20;;;;;;;6.13;3.83;;;;;;;;;;5044554;28;20120;-83
2021/05/07 00:37:46;;;;;;;5.50;3.95;;;;;;;;;;5065673;28;20534;-84
2021/05/07 00:40:13;;;;;;;5.35;3.80;;;;;;;;;;5044007;28;20025;-83
2021/05/07 00:42:39;;;;;;;5.25;4.13;;;;;;;;;;5058460;28;20036;-83
2021/05/07 00:45:06;;;;;;;6.18;3.80;;;;;;;;;;5072702;28;20017;-83
2021/05/07 00:47:37;;;;;;;5.75;3.60;;;;;;;;;;5058319;28;20384;-84
2021/05/07 00:50:03;;;;;;;4.47;3.28;;;;;;;;;;5055900;28;20039;-84
2021/05/07 00:52:33;;;;;;;6.22;3.28;;;;;;;;;;5052670;28;20029;-83
2021/05/07 00:54:59;;;;;;;8.50;4.28;;;;;;;;;;5055781;28;20492;-83
2021/05/07 00:57:26;;;;;;;7.45;4.10;;;;;;;;;;5059414;28;20028;-83
2021/05/07 00:59:52;;;;;;;6.05;4.00;;;;;;;;;;5077623;28;20103;-83
2021/05/07 01:02:18;;;;;;;6.25;3.58;;;;;;;;;;5076451;28;20067;-83
2021/05/07 01:04:44;;;;;;;5.22;4.18;;;;;;;;;;5077757;28;20016;-83
2021/05/07 01:07:10;;;;;;;5.20;3.88;;;;;;;;;;5056790;28;20019;-83
2021/05/07 01:09:36;;;;;;;5.75;3.90;;;;;;;;;;5055939;28;20052;-83
2021/05/07 01:12:02;;;;;;;4.97;4.22;;;;;;;;;;5050725;28;20059;-83
2021/05/07 01:14:28;;;;;;;7.50;3.83;;;;;;;;;;5067900;28;20088;-83
2021/05/07 01:16:54;;;;;;;5.88;3.72;;;;;;;;;;5046165;28;20570;-83
2021/05/07 01:19:20;;;;;;;6.60;4.07;;;;;;;;;;5055962;28;20047;-83
2021/05/07 01:21:46;;;;;;;5.57;4.15;;;;;;;;;;5049493;28;20037;-83
2021/05/07 01:24:12;;;;;;;7.65;5.07;;;;;;;;;;5048572;28;20052;-83
2021/05/07 01:26:41;;;;;;;5.53;4.20;;;;;;;;;;5049612;28;20016;-83
2021/05/07 01:29:11;;;;;;;5.47;4.00;;;;;;;;;;5055274;28;20089;-83
2021/05/07 01:31:37;;;;;;;5.45;4.22;;;;;;;;;;5050737;28;20527;-83
2021/05/07 01:34:04;;;;;;;6.55;4.63;;;;;;;;;;5055716;28;20048;-83
2021/05/07 01:36:31;;;;;;;5.20;4.40;;;;;;;;;;5076323;28;20029;-83
2021/05/07 01:38:57;;;;;;;6.15;4.15;;;;;;;;;;5057210;28;20673;-83
2021/05/07 01:41:23;;;;;;;7.03;4.50;;;;;;;;;;5045112;28;20028;-83
2021/05/07 01:43:49;;;;;;;6.03;4.32;;;;;;;;;;5037432;28;20037;-83
2021/05/07 01:46:15;;;;;;;7.25;4.47;;;;;;;;;;5053001;28;20032;-84
2021/05/07 01:48:41;;;;;;;5.80;4.45;;;;;;;;;;5051838;28;20032;-83
2021/05/07 01:51:08;;;;;;;6.85;4.35;;;;;;;;;;5053084;28;20105;-83
2021/05/07 01:53:34;;;;;;;4.88;4.05;;;;;;;;;;5055846;28;20032;-83
2021/05/07 01:56:01;;;;;;;5.70;4.50;;;;;;;;;;5056646;28;20123;-83
2021/05/07 01:58:27;;;;;;;6.18;4.60;;;;;;;;;;5073538;28;20031;-83
2021/05/07 02:00:54;;;;;;;6.07;4.88;;;;;;;;;;5051559;28;20123;-83
2021/05/07 02:03:20;;;;;;;6.15;5.00;;;;;;;;;;5051571;28;20028;-83
2021/05/07 02:05:46;;;;;;;8.10;4.90;;;;;;;;;;5061947;28;20044;-83
2021/05/07 02:08:12;;;;;;;7.70;5.07;;;;;;;;;;5052640;28;20044;-83
2021/05/07 02:10:39;;;;;;;8.30;4.88;;;;;;;;;;5049922;28;20036;-83
2021/05/07 02:13:06;;;;;;;9.13;5.68;;;;;;;;;;5056592;28;20028;-83
2021/05/07 02:15:32;;;;;;;7.00;5.03;;;;;;;;;;5055906;28;20433;-83
2021/05/07 02:17:58;;;;;;;6.53;4.50;;;;;;;;;;5071702;28;20028;-83
2021/05/07 02:20:26;;;;;;;6.22;4.70;;;;;;;;;;5063861;28;20044;-83
2021/05/07 02:22:52;;;;;;;5.47;4.18;;;;;;;;;;5056230;28;20028;-83
2021/05/07 02:25:19;;;;;;;5.43;4.57;;;;;;;;;;5074267;28;24776;-83
2021/05/07 02:27:45;;;;;;;6.15;4.85;;;;;;;;;;5071441;28;20032;-83
2021/05/07 02:30:13;;;;;;;7.90;5.22;;;;;;;;;;5055293;28;20116;-83
2021/05/07 02:32:39;;;;;;;6.90;5.15;;;;;;;;;;5043958;28;20032;-83
2021/05/07 02:35:06;;;;;;;8.18;4.70;;;;;;;;;;5061470;28;20112;-83
2021/05/07 02:37:32;;;;;;;5.85;4.20;;;;;;;;;;5052855;28;20055;-83
2021/05/07 02:39:58;;;;;;;5.72;4.13;;;;;;;;;;5045945;28;20575;-83
2021/05/07 02:42:24;;;;;;;5.55;4.40;;;;;;;;;;5048348;28;20017;-83
2021/05/07 02:44:50;;;;;;;5.85;3.92;;;;;;;;;;5042889;28;20029;-83
2021/05/07 02:47:16;;;;;;;4.47;3.83;;;;;;;;;;5056048;28;20039;-83
2021/05/07 02:49:42;;;;;;;7.20;4.63;;;;;;;;;;5056088;28;20033;-83
2021/05/07 02:52:08;;;;;;;5.28;4.38;;;;;;;;;;5045738;28;20337;-83
2021/05/07 02:54:34;;;;;;;5.50;3.90;;;;;;;;;;5049628;28;20526;-83
2021/05/07 02:57:01;;;;;;;7.47;4.53;;;;;;;;;;5057115;28;20032;-83
2021/05/07 02:59:27;;;;;;;5.88;4.45;;;;;;;;;;5065777;28;20087;-83
2021/05/07 03:01:53;;;;;;;6.65;4.47;;;;;;;;;;5051304;28;20107;-83
2021/05/07 03:04:19;;;;;;;5.70;4.32;;;;;;;;;;5075621;28;20048;-83
2021/05/07 03:06:45;;;;;;;6.30;4.90;;;;;;;;;;5051897;28;20025;-83
2021/05/07 03:09:12;;;;;;;6.55;4.93;;;;;;;;;;5048328;28;20127;-83
2021/05/07 03:11:37;;;;;;;6.10;4.95;;;;;;;;;;5056346;28;20035;-83
2021/05/07 03:14:04;;;;;;;6.18;4.70;;;;;;;;;;5055563;28;20048;-83
2021/05/07 03:16:30;;;;;;;6.47;4.70;;;;;;;;;;5043269;28;20036;-83
2021/05/07 03:18:56;;;;;;;6.22;4.72;;;;;;;;;;5055682;28;20127;-83
2021/05/07 03:21:22;;;;;;;5.97;4.43;;;;;;;;;;5065676;28;20078;-83
2021/05/07 03:23:48;;;;;;;7.28;4.72;;;;;;;;;;5057318;28;20571;-83
2021/05/07 03:26:14;;;;;;;5.70;4.28;;;;;;;;;;5048073;28;20124;-83
2021/05/07 03:28:40;;;;;;;6.55;4.80;;;;;;;;;;5068736;28;20397;-83
2021/05/07 03:31:06;;;;;;;5.82;4.53;;;;;;;;;;5036842;28;20090;-83
2021/05/07 03:33:33;;;;;;;5.55;4.60;;;;;;;;;;5054839;28;20064;-83
2021/05/07 03:35:59;;;;;;;7.05;4.85;;;;;;;;;;5066672;28;20256;-83
2021/05/07 03:38:25;;;;;;;6.55;5.00;;;;;;;;;;5056177;28;20094;-83
2021/05/07 03:40:51;;;;;;;6.00;4.65;;;;;;;;;;5056971;28;20119;-83
2021/05/07 03:43:17;;;;;;;6.00;4.63;;;;;;;;;;5045592;28;20029;-83
2021/05/07 03:45:43;;;;;;;6.28;4.90;;;;;;;;;;5056779;28;20484;-83
2021/05/07 03:48:16;;;;;;;5.63;4.45;;;;;;;;;;5044249;28;20451;-83
2021/05/07 03:50:42;;;;;;;5.97;4.22;;;;;;;;;;5061099;28;20039;-83
2021/05/07 03:53:11;;;;;;;9.68;6.50;;;;;;;;;;5045222;28;20131;-83
2021/05/07 03:55:38;;;;;;;9.30;6.53;;;;;;;;;;5062505;28;20048;-83
2021/05/07 03:58:04;;;;;;;8.38;5.53;;;;;;;;;;5061470;28;21174;-83
2021/05/07 04:00:30;;;;;;;7.50;5.57;;;;;;;;;;5053700;28;20052;-83
2021/05/07 04:02:56;;;;;;;7.03;5.18;;;;;;;;;;5059652;28;20025;-83
2021/05/07 04:05:22;;;;;;;8.20;5.60;;;;;;;;;;5078272;28;20016;-83
2021/05/07 04:07:50;;;;;;;6.38;4.95;;;;;;;;;;5049688;28;20159;-83
2021/05/07 04:10:18;;;;;;;7.72;5.72;;;;;;;;;;5053046;28;20138;-83
2021/05/07 04:15:14;;;;;;;7.43;5.35;;;;;;;;;;5077967;28;20040;-83
2021/05/07 04:17:40;;;;;;;8.50;5.47;;;;;;;;;;5056600;28;20071;-83
2021/05/07 04:20:06;;;;;;;8.68;5.18;;;;;;;;;;5058190;28;20035;-83
2021/05/07 04:22:33;;;;;;;6.55;5.32;;;;;;;;;;5048514;28;20025;-83
2021/05/07 04:24:59;;;;;;;7.10;5.72;;;;;;;;;;5059804;28;20042;-84
2021/05/07 04:27:25;;;;;;;7.43;5.10;;;;;;;;;;5049825;28;20029;-82
2021/05/07 04:29:51;;;;;;;7.20;5.22;;;;;;;;;;5053291;28;20491;-82
2021/05/07 04:32:18;;;;;;;7.40;5.13;;;;;;;;;;5059332;28;20021;-85
2021/05/07 04:34:43;;;;;;;8.85;4.93;;;;;;;;;;5059792;28;20082;-83
2021/05/07 04:37:09;;;;;;;7.55;4.07;;;;;;;;;;5059524;28;20029;-84
2021/05/07 04:39:35;;;;;;;7.10;5.05;;;;;;;;;;5059371;28;20032;-83
2021/05/07 04:42:01;;;;;;;6.43;4.13;;;;;;;;;;5073906;28;20012;-83
2021/05/07 04:44:28;;;;;;;7.03;5.10;;;;;;;;;;5053833;28;20048;-83
2021/05/07 04:46:54;;;;;;;6.63;4.25;;;;;;;;;;5050707;28;20024;-83
2021/05/07 04:49:20;;;;;;;6.18;3.90;;;;;;;;;;5058936;28;20031;-84
2021/05/07 04:51:46;;;;;;;6.88;3.90;;;;;;;;;;5059266;28;20028;-84
2021/05/07 04:54:12;;;;;;;6.05;4.03;;;;;;;;;;5057203;28;20444;-83
2021/05/07 04:56:38;;;;;;;6.90;3.42;;;;;;;;;;5059748;28;20044;-83
2021/05/07 04:59:04;;;;;;;5.97;3.85;;;;;;;;;;5054444;28;20025;-83
2021/05/07 05:01:30;;;;;;;6.35;3.40;;;;;;;;;;5047326;28;20060;-83
2021/05/07 05:03:56;;;;;;;9.48;3.50;;;;;;;;;;5049574;28;20035;-84
2021/05/07 05:06:22;;;;;;;3.45;2.50;;;;;;;;;;5059722;28;20028;-84
2021/05/07 05:08:48;;;;;;;4.45;3.10;;;;;;;;;;5049558;28;20053;-83
2021/05/07 05:11:14;;;;;;;5.85;3.17;;;;;;;;;;5043349;28;20029;-83
2021/05/07 05:13:40;;;;;;;5.28;2.47;;;;;;;;;;5045476;28;20076;-83
2021/05/07 05:16:06;;;;;;;5.55;2.80;;;;;;;;;;5037273;28;20032;-84
2021/05/07 05:18:34;;;;;;;3.90;2.65;;;;;;;;;;5049784;28;20021;-85
2021/05/07 05:21:01;;;;;;;6.65;2.25;;;;;;;;;;5056118;28;20510;-84
2021/05/07 05:23:28;;;;;;;6.18;3.08;;;;;;;;;;5049745;28;20021;-84
2021/05/07 05:25:54;;;;;;;4.30;2.30;;;;;;;;;;5058436;28;20052;-83
2021/05/07 05:28:20;;;;;;;7.15;2.60;;;;;;;;;;5057574;28;20124;-84
2021/05/07 05:30:47;;;;;;;4.03;2.60;;;;;;;;;;5057116;28;20076;-83
2021/05/07 05:33:13;;;;;;;5.32;2.50;;;;;;;;;;5057804;28;20120;-83
2021/05/07 05:35:39;;;;;;;3.35;2.53;;;;;;;;;;5051014;28;20103;-83
2021/05/07 05:38:06;;;;;;;5.50;2.42;;;;;;;;;;5040483;28;20565;-83
2021/05/07 05:40:32;;;;;;;6.72;2.97;;;;;;;;;;5036872;28;20026;-83
2021/05/07 05:42:58;;;;;;;4.85;2.75;;;;;;;;;;5064429;28;20048;-83
2021/05/07 05:45:25;;;;;;;5.32;2.50;;;;;;;;;;5054567;28;20021;-83
2021/05/07 05:48:10;;;;;;;4.75;2.30;;;;;;;;;;5056665;28;20380;-83
2021/05/07 05:50:37;;;;;;;9.20;2.47;;;;;;;;;;5036018;28;20118;-83
2021/05/07 05:53:03;;;;;;;5.80;2.25;;;;;;;;;;5040438;28;20029;-84
2021/05/07 05:55:29;;;;;;;6.05;2.47;;;;;;;;;;5040335;28;20022;-84
2021/05/07 05:57:55;;;;;;;6.10;2.95;;;;;;;;;;5042313;28;20459;-84
2021/05/07 06:00:22;;;;;;;5.25;2.20;;;;;;;;;;5055760;28;20028;-84
2021/05/07 06:02:48;;;;;;;5.30;2.45;;;;;;;;;;5054514;28;20036;-84
2021/05/07 06:05:20;;;;;;;3.63;2.53;;;;;;;;;;5043493;28;20071;-84
2021/05/07 06:07:46;;;;;;;6.57;2.40;;;;;;;;;;5045043;28;20508;-84
2021/05/07 06:10:13;;;;;;;3.53;2.85;;;;;;;;;;5049541;28;20049;-84
2021/05/07 06:12:40;;;;;;;5.13;2.22;;;;;;;;;;5057787;28;20063;-84
2021/05/07 06:15:06;;;;;;;5.82;2.47;;;;;;;;;;5047349;28;20024;-85
2021/05/07 06:17:33;;;;;;;7.03;2.55;;;;;;;;;;5050162;28;20060;-85
2021/05/07 06:20:02;;;;;;;5.22;2.70;;;;;;;;;;5051582;28;20040;-85
2021/05/07 06:22:29;;;;;;;5.38;2.72;;;;;;;;;;5055773;28;20020;-85
2021/05/07 06:24:55;;;;;;;6.25;2.30;;;;;;;;;;5049369;28;20017;-84
2021/05/07 06:27:21;;;;;;;8.07;2.60;;;;;;;;;;5055754;28;20137;-85
2021/05/07 06:29:47;;;;;;;4.93;2.60;;;;;;;;;;5057317;28;20048;-85
2021/05/07 06:32:13;;;;;;;5.20;2.63;;;;;;;;;;5043114;28;20029;-84
2021/05/07 06:34:39;;;;;;;9.25;2.47;;;;;;;;;;5038195;28;20491;-84
2021/05/07 06:37:05;;;;;;;4.57;2.30;;;;;;;;;;5054518;28;20028;-85
2021/05/07 06:39:31;;;;;;;8.13;2.80;;;;;;;;;;5057150;28;20024;-84
2021/05/07 06:42:01;;;;;;;7.35;2.53;;;;;;;;;;5051776;28;20033;-84
2021/05/07 06:44:27;;;;;;;6.50;2.30;;;;;;;;;;5054816;28;20484;-85
2021/05/07 06:46:53;;;;;;;8.88;2.70;;;;;;;;;;5055036;28;20120;-84
2021/05/07 06:49:20;;;;;;;3.80;2.40;;;;;;;;;;5056424;28;20249;-85
2021/05/07 06:51:46;;;;;;;4.38;2.55;;;;;;;;;;5045510;28;20111;-85
2021/05/07 06:54:12;;;;;;;6.47;2.92;;;;;;;;;;5059467;28;20116;-85
2021/05/07 06:56:38;;;;;;;5.75;2.50;;;;;;;;;;5050307;28;20057;-85
2021/05/07 06:59:06;;;;;;;5.47;2.35;;;;;;;;;;5038744;28;20032;-85
2021/05/07 07:01:33;;;;;;;7.20;2.38;;;;;;;;;;5047028;28;20476;-85
2021/05/07 07:03:59;;;;;;;8.02;3.00;;;;;;;;;;5045384;28;20025;-85
2021/05/07 07:06:25;;;;;;;10.20;2.42;;;;;;;;;;5049640;28;20036;-84
2021/05/07 07:08:51;;;;;;;5.35;2.30;;;;;;;;;;5068696;28;20060;-84
2021/05/07 07:11:17;;;;;;;5.22;2.85;;;;;;;;;;5058645;28;20074;-84
2021/05/07 07:13:44;;;;;;;8.77;2.35;;;;;;;;;;5049261;28;20060;-84
2021/05/07 07:16:10;;;;;;;6.18;2.22;;;;;;;;;;5055121;28;20115;-85
2021/05/07 07:18:36;;;;;;;6.85;2.55;;;;;;;;;;5051346;28;20077;-85
2021/05/07 07:21:03;;;;;;;6.20;2.40;;;;;;;;;;5055590;28;20362;-85
2021/05/07 07:23:29;;;;;;;10.27;3.20;;;;;;;;;;5060180;28;20127;-85
2021/05/07 07:25:55;;;;;;;11.95;2.65;;;;;;;;;;5076912;28;20492;-85
2021/05/07 07:28:21;;;;;;;9.88;2.72;;;;;;;;;;5059136;28;20066;-84
2021/05/07 07:30:47;;;;;;;4.90;2.13;;;;;;;;;;5065342;28;20052;-85
2021/05/07 07:33:13;;;;;;;9.82;3.47;;;;;;;;;;5064422;28;20059;-85
2021/05/07 07:35:39;;;;;;;9.85;2.00;;;;;;;;;;5062272;28;20028;-84
2021/05/07 07:38:05;;;;;;;5.93;2.40;;;;;;;;;;5045700;28;20040;-84
2021/05/07 07:40:31;;;;;;;7.70;2.47;;;;;;;;;;5053421;28;20032;-83
2021/05/07 07:42:57;;;;;;;8.93;2.58;;;;;;;;;;5051498;28;20084;-84
2021/05/07 07:45:23;;;;;;;6.38;2.15;;;;;;;;;;5052070;28;20025;-84
2021/05/07 07:47:49;;;;;;;8.10;2.63;;;;;;;;;;5062566;28;20043;-84
2021/05/07 07:50:15;;;;;;;7.53;2.63;;;;;;;;;;5082430;28;20017;-84
2021/05/07 07:52:41;;;;;;;7.97;2.40;;;;;;;;;;5058354;28;20024;-84
2021/05/07 07:55:09;;;;;;;8.50;2.22;;;;;;;;;;5062975;28;20047;-84
2021/05/07 07:57:35;;;;;;;7.15;2.50;;;;;;;;;;5070542;28;20103;-84
2021/05/07 08:00:01;;;;;;;5.70;2.50;;;;;;;;;;5046017;28;20065;-84
2021/05/07 08:02:27;;;;;;;3.75;2.17;;;;;;;;;;5047416;28;20036;-84
2021/05/07 08:04:53;;;;;;;8.38;2.30;;;;;;;;;;5062309;28;20486;-84
2021/05/07 08:07:20;;;;;;;6.63;2.20;;;;;;;;;;5061809;28;20020;-85
2021/05/07 08:09:46;;;;;;;7.40;1.90;;;;;;;;;;5062321;28;20068;-84
2021/05/07 08:12:12;;;;;;;5.75;2.25;;;;;;;;;;5062950;28;20040;-84
2021/05/07 08:14:38;;;;;;;4.95;2.50;;;;;;;;;;5078657;28;20108;-84
2021/05/07 08:17:04;;;;;;;4.18;2.25;;;;;;;;;;5073044;28;20032;-84
2021/05/07 08:19:30;;;;;;;6.47;2.20;;;;;;;;;;5060471;28;20047;-84
2021/05/07 08:21:56;;;;;;;8.13;2.67;;;;;;;;;;5057716;28;20105;-85
2021/05/07 08:24:26;;;;;;;6.13;2.42;;;;;;;;;;5071238;28;20029;-85
2021/05/07 08:26:52;;;;;;;4.38;2.20;;;;;;;;;;5062285;28;20421;-85
2021/05/07 08:29:18;;;;;;;4.15;1.70;;;;;;;;;;5062393;28;20025;-84
2021/05/07 08:31:45;;;;;;;3.72;1.73;;;;;;;;;;5079836;28;20021;-84
2021/05/07 08:34:11;;;;;;;2.55;1.60;;;;;;;;;;5062012;28;20027;-85
2021/05/07 08:36:37;;;;;;;1.92;1.42;;;;;;;;;;5048923;28;20079;-84
2021/05/07 08:39:03;;;;;;;5.80;1.88;;;;;;;;;;5049945;28;20044;-84
2021/05/07 08:41:29;;;;;;;3.50;1.55;;;;;;;;;;5052569;28;20322;-84
2021/05/07 08:43:55;;;;;;;8.00;2.13;;;;;;;;;;5039815;28;20029;-84
2021/05/07 08:46:21;;;;;;;5.07;1.75;;;;;;;;;;5041723;28;20027;-84
2021/05/07 08:48:47;;;;;;;2.65;1.67;;;;;;;;;;5077107;28;20443;-84
2021/05/07 08:51:13;;;;;;;6.80;1.83;;;;;;;;;;5058758;28;20070;-84
2021/05/07 08:53:40;;;;;;;3.95;1.67;;;;;;;;;;5076541;28;20139;-84
2021/05/07 08:56:07;;;;;;;3.10;1.60;;;;;;;;;;5076668;28;20036;-84
2021/05/07 08:58:33;;;;;;;5.20;1.90;;;;;;;;;;5058798;28;20047;-84
2021/05/07 09:01:00;;;;;;;3.42;1.80;;;;;;;;;;5059613;28;20069;-85
2021/05/07 09:03:26;;;;;;;6.50;1.60;;;;;;;;;;5055030;28;20017;-84
2021/05/07 09:05:52;;;;;;;8.18;2.42;;;;;;;;;;5048989;28;20024;-82
2021/05/07 09:08:18;;;;;;;5.90;1.73;;;;;;;;;;5043159;28;20052;-84
2021/05/07 09:10:45;;;;;;;2.00;1.45;;;;;;;;;;5069043;28;20043;-84
2021/05/07 09:13:13;;;;;;;2.75;1.20;;;;;;;;;;5053623;28;20110;-83
2021/05/07 09:15:39;;;;;;;4.00;1.65;;;;;;;;;;5054913;28;20033;-84
2021/05/07 09:18:05;;;;;;;4.57;1.65;;;;;;;;;;5051100;28;20029;-84
2021/05/07 09:20:41;;;;;;;2.63;1.40;;;;;;;;;;5048340;28;20468;-84
2021/05/07 09:23:14;;;;;;;2.03;1.42;;;;;;;;;;5052064;28;20115;-84
2021/05/07 09:25:41;;;;;;;1.88;1.27;;;;;;;;;;5054874;28;20024;-84
2021/05/07 09:28:08;;;;;;;2.30;1.15;;;;;;;;;;5058038;28;20088;-84
2021/05/07 09:30:34;;;;;;;1.48;0.82;;;;;;;;;;5046452;28;20044;-84
2021/05/07 09:33:05;;;;;;;1.42;0.90;;;;;;;;;;5068456;28;20019;-84
2021/05/07 09:35:32;;;;;;;2.50;1.23;;;;;;;;;;5053726;28;20088;-84
2021/05/07 09:37:59;;;;;;;2.67;0.82;;;;;;;;;;5048741;28;20125;-84
2021/05/07 09:40:25;;;;;;;0.90;0.80;;;;;;;;;;5056647;28;20021;-83
2021/05/07 09:43:02;;;;;;;1.50;0.77;;;;;;;;;;5046923;28;20017;-84
2021/05/07 09:45:28;;;;;;;0.85;0.75;;;;;;;;;;5044700;28;20033;-83
2021/05/07 09:47:54;;;;;;;1.20;0.70;;;;;;;;;;5044792;28;20023;-84
2021/05/07 09:50:30;;;;;;;1.25;0.80;;;;;;;;;;5057467;28;20066;-84
2021/05/07 09:52:56;;;;;;;2.65;0.90;;;;;;;;;;5039132;28;20710;-83
2021/05/07 09:55:30;;;;;;;2.92;0.80;;;;;;;;;;5045951;28;20020;-84
2021/05/07 09:57:56;;;;;;;2.70;0.82;;;;;;;;;;5054277;28;20024;-83
2021/05/07 10:00:22;;;;;;;1.02;0.70;;;;;;;;;;5076174;28;20028;-83
2021/05/07 10:02:50;;;;;;;1.35;0.70;;;;;;;;;;5053594;28;20556;-83
2021/05/07 10:05:16;;;;;;;0.95;0.70;;;;;;;;;;5036114;28;20098;-83
2021/05/07 10:07:42;;;;;;;0.80;0.73;;;;;;;;;;5049968;28;20049;-83
2021/05/07 10:10:08;;;;;;;1.00;0.70;;;;;;;;;;5062195;28;20039;-83
2021/05/07 10:12:35;;;;;;;3.25;0.68;;;;;;;;;;5060892;28;20032;-83
2021/05/07 10:15:02;;;;;;;1.90;0.95;;;;;;;;;;5065898;28;20112;-83
2021/05/07 10:17:28;;;;;;;0.90;0.70;;;;;;;;;;5050469;28;20547;-83
2021/05/07 10:19:54;;;;;;;0.70;0.60;;;;;;;;;;5048928;28;20096;-83
2021/05/07 10:22:26;;;;;;;1.05;0.60;;;;;;;;;;5070610;28;20081;-83
2021/05/07 10:24:53;;;;;;;0.95;0.70;;;;;;;;;;5041643;28;20484;-83
2021/05/07 10:27:21;;;;;;;1.38;0.82;;;;;;;;;;5049815;28;20020;-84
2021/05/07 10:29:54;;;;;;;1.42;0.70;;;;;;;;;;5052002;28;20020;-84
2021/05/07 10:32:33;;;;;;;0.75;0.52;;;;;;;;;;5063542;28;20033;-84
2021/05/07 10:34:59;;;;;;;3.85;0.90;;;;;;;;;;5055443;28;20392;-84
2021/05/07 10:37:36;;;;;;;2.53;0.80;;;;;;;;;;5045725;28;20024;-83
2021/05/07 10:40:02;;;;;;;1.30;0.70;;;;;;;;;;5074417;28;20035;-83
2021/05/07 10:42:29;;;;;;;2.47;0.77;;;;;;;;;;5075719;28;20166;-83
2021/05/07 10:44:55;;;;;;;3.63;1.05;;;;;;;;;;5054853;28;20028;-84
2021/05/07 10:47:31;;;;;;;2.47;0.63;;;;;;;;;;5045307;28;20067;-83
2021/05/07 10:49:57;;;;;;;2.88;0.80;;;;;;;;;;5054330;28;20025;-83
2021/05/07 10:52:23;;;;;;;1.45;0.80;;;;;;;;;;5065753;28;20468;-83
2021/05/07 10:54:56;;;;;;;1.17;0.73;;;;;;;;;;5075046;28;20027;-83
2021/05/07 10:57:29;;;;;;;2.08;0.90;;;;;;;;;;5056181;28;20035;-83
2021/05/07 10:59:56;;;;;;;1.58;0.98;;;;;;;;;;5073361;28;20108;-82
2021/05/07 11:02:22;;;;;;;4.78;1.30;;;;;;;;;;5043620;28;20397;-82
2021/05/07 11:04:49;;;;;;;5.15;1.70;;;;;;;;;;5052643;28;20029;-83
2021/05/07 11:07:28;;;;;;;2.80;0.90;;;;;;;;;;5045436;28;20083;-83
2021/05/07 11:10:00;;;;;;;3.03;1.27;;;;;;;;;;5071578;28;20507;-83
2021/05/07 11:12:26;;;;;;;3.03;0.90;;;;;;;;;;5052242;28;20029;-83
2021/05/07 11:14:52;;;;;;;6.05;1.02;;;;;;;;;;5049279;28;20032;-83
2021/05/07 11:17:18;;;;;;;4.00;1.20;;;;;;;;;;5053100;28;20036;-83
2021/05/07 11:19:44;;;;;;;1.75;0.85;;;;;;;;;;5049004;28;20052;-84
2021/05/07 11:22:10;;;;;;;4.65;1.10;;;;;;;;;;5069965;28;20473;-84
2021/05/07 11:24:41;;;;;;;2.20;0.90;;;;;;;;;;5049756;28;20022;-84
2021/05/07 11:27:24;;;;;;;3.50;0.82;;;;;;;;;;5052168;28;20059;-85
2021/05/07 11:29:50;;;;;;;2.92;1.00;;;;;;;;;;5047826;28;20060;-84
2021/05/07 11:32:21;;;;;;;2.90;1.00;;;;;;;;;;5052687;28;20476;-84
2021/05/07 11:34:57;;;;;;;1.85;0.77;;;;;;;;;;5047037;28;20442;-84
2021/05/07 11:37:24;;;;;;;3.28;0.90;;;;;;;;;;5044883;28;20095;-84
2021/05/07 11:40:01;;;;;;;2.45;0.73;;;;;;;;;;5054119;28;20067;-84
2021/05/07 11:42:37;;;;;;;2.03;1.02;;;;;;;;;;5070452;28;20024;-84
2021/05/07 11:45:08;;;;;;;3.28;0.95;;;;;;;;;;5054177;28;20021;-84
2021/05/07 11:47:34;;;;;;;2.38;0.80;;;;;;;;;;5054304;28;20052;-85
2021/05/07 11:50:01;;;;;;;1.65;0.70;;;;;;;;;;5042854;28;20028;-84
2021/05/07 11:52:34;;;;;;;3.65;1.10;;;;;;;;;;5073981;28;20527;-84
2021/05/07 11:55:00;;;;;;;6.50;1.67;;;;;;;;;;5052065;28;20400;-85
2021/05/07 11:57:27;;;;;;;3.88;1.40;;;;;;;;;;5055648;28;20028;-85
2021/05/07 11:59:53;;;;;;;2.45;1.48;;;;;;;;;;5054408;28;20385;-85
2021/05/07 12:02:20;;;;;;;3.00;1.70;;;;;;;;;;5051579;28;20052;-84
2021/05/07 12:04:46;;;;;;;3.22;1.55;;;;;;;;;;5058780;28;20091;-84
2021/05/07 12:07:26;;;;;;;2.10;1.45;;;;;;;;;;5049951;28;20024;-83
2021/05/07 12:09:53;;;;;;;2.05;1.00;;;;;;;;;;5058365;28;20036;-84
2021/05/07 12:12:19;;;;;;;1.90;1.10;;;;;;;;;;5044910;28;20082;-85
2021/05/07 12:14:49;;;;;;;0.88;0.88;;;;;;;;;;5068028;28;20032;-86
2021/05/07 12:17:16;;;;;;;2.35;0.70;;;;;;;;;;5039137;28;20138;-86
2021/05/07 12:19:42;;;;;;;1.80;0.80;;;;;;;;;;5053484;28;20472;-86
2021/05/07 12:22:08;;;;;;;1.85;0.80;;;;;;;;;;5056179;28;20024;-86
2021/05/07 12:24:34;;;;;;;0.98;0.70;;;;;;;;;;5056745;28;20044;-85
2021/05/07 12:27:00;;;;;;;1.10;0.70;;;;;;;;;;5062208;28;20380;-86
2021/05/07 12:29:36;;;;;;;1.60;0.60;;;;;;;;;;5050007;28;20047;-84
2021/05/07 12:32:07;;;;;;;0.85;0.70;;;;;;;;;;5047635;28;20485;-85
2021/05/07 12:34:33;;;;;;;1.13;0.60;;;;;;;;;;5055261;28;20028;-84
2021/05/07 12:37:01;;;;;;;0.50;0.40;;;;;;;;;;5042238;28;20427;-84
2021/05/07 12:39:27;;;;;;;0.40;0.30;;;;;;;;;;5050753;28;20025;-84
2021/05/07 12:41:55;;;;;;;0.22;0.20;;;;;;;;;;5047545;28;20120;-85
2021/05/07 12:44:22;;;;;;;0.50;0.30;;;;;;;;;;5070525;28;20405;-85
2021/05/07 12:46:48;;;;;;;0.60;0.30;;;;;;;;;;5055135;28;20056;-85
2021/05/07 12:49:14;;;;;;;0.30;0.22;;;;;;;;;;5054595;28;20373;-85
2021/05/07 12:51:40;;;;;;;1.48;0.60;;;;;;;;;;5074680;28;20154;-84
2021/05/07 12:54:06;;;;;;;0.82;0.40;;;;;;;;;;5074138;28;20486;-84
2021/05/07 12:56:32;;;;;;;0.82;0.50;;;;;;;;;;5053103;28;20029;-85
2021/05/07 12:58:58;;;;;;;0.93;0.70;;;;;;;;;;5050986;28;20404;-85
2021/05/07 13:01:25;;;;;;;1.48;0.60;;;;;;;;;;5052416;28;20017;-85
2021/05/07 13:03:51;;;;;;;0.98;0.40;;;;;;;;;;5051717;28;20029;-85
2021/05/07 13:06:17;;;;;;;1.52;0.73;;;;;;;;;;5038252;28;20029;-84
2021/05/07 13:08:43;;;;;;;1.40;0.80;;;;;;;;;;5053825;28;20392;-85
2021/05/07 13:11:10;;;;;;;1.73;0.80;;;;;;;;;;5051370;28;20090;-84
2021/05/07 13:13:39;;;;;;;4.10;1.25;;;;;;;;;;5049574;28;20021;-84
2021/05/07 13:16:05;;;;;;;1.92;1.20;;;;;;;;;;5065448;28;20028;-84
2021/05/07 13:18:31;;;;;;;1.83;1.15;;;;;;;;;;5067968;28;20095;-84
2021/05/07 13:20:57;;;;;;;2.58;1.23;;;;;;;;;;5041957;28;20602;-85
2021/05/07 13:23:23;;;;;;;1.40;1.30;;;;;;;;;;5054831;28;20081;-85
2021/05/07 13:25:49;;;;;;;2.55;1.50;;;;;;;;;;5068784;28;20032;-85
2021/05/07 13:28:15;;;;;;;1.90;1.45;;;;;;;;;;5045599;28;20024;-86
2021/05/07 13:30:41;;;;;;;2.30;1.45;;;;;;;;;;5054011;28;20028;-85
2021/05/07 13:33:07;;;;;;;2.00;1.60;;;;;;;;;;5057278;28;20039;-85
2021/05/07 13:35:33;;;;;;;3.08;1.40;;;;;;;;;;5057588;28;20514;-85
2021/05/07 13:37:59;;;;;;;1.23;1.08;;;;;;;;;;5051138;28;20021;-84
2021/05/07 13:40:27;;;;;;;2.70;1.58;;;;;;;;;;5071092;28;20113;-85
2021/05/07 13:42:54;;;;;;;1.77;1.42;;;;;;;;;;5061792;28;20434;-84
2021/05/07 13:45:20;;;;;;;1.70;1.30;;;;;;;;;;5059728;28;20481;-85
2021/05/07 13:47:46;;;;;;;1.88;1.20;;;;;;;;;;5043570;28;20116;-84
2021/05/07 13:50:12;;;;;;;5.05;1.55;;;;;;;;;;5054998;28;20467;-84
2021/05/07 13:52:38;;;;;;;2.28;1.40;;;;;;;;;;5059288;28;20495;-84
2021/05/07 13:55:05;;;;;;;2.20;1.58;;;;;;;;;;5071814;28;20033;-84
2021/05/07 13:57:31;;;;;;;1.70;1.33;;;;;;;;;;5043206;28;20051;-84
2021/05/07 14:00:03;;;;;;;1.67;1.30;;;;;;;;;;5049420;28;20392;-84
2021/05/07 14:02:29;;;;;;;1.98;1.20;;;;;;;;;;5056851;28;20469;-84
2021/05/07 14:04:55;;;;;;;3.08;0.70;;;;;;;;;;5041425;28;20079;-84
2021/05/07 14:07:22;;;;;;;0.30;0.30;;;;;;;;;;5059685;28;20020;-84
2021/05/07 14:09:48;;;;;;;1.25;0.52;;;;;;;;;;5063322;28;20048;-85
2021/05/07 14:12:14;;;;;;;1.55;0.57;;;;;;;;;;5053723;28;20051;-84
2021/05/07 14:14:45;;;;;;;0.73;0.60;;;;;;;;;;5046089;28;20170;-84
2021/05/07 14:17:12;;;;;;;0.95;0.82;;;;;;;;;;5057306;28;20025;-84
2021/05/07 14:19:38;;;;;;;1.00;0.60;;;;;;;;;;5050312;28;20035;-85
2021/05/07 14:22:04;;;;;;;1.05;0.82;;;;;;;;;;5052658;28;20016;-85
2021/05/07 14:24:30;;;;;;;3.92;1.02;;;;;;;;;;5049464;28;20032;-86
2021/05/07 14:26:56;;;;;;;2.03;0.82;;;;;;;;;;5053019;28;20078;-85
2021/05/07 14:29:22;;;;;;;1.70;0.90;;;;;;;;;;5058823;28;20028;-84
2021/05/07 14:31:48;;;;;;;2.63;0.93;;;;;;;;;;5055334;28;20044;-84
2021/05/07 14:34:15;;;;;;;1.38;0.80;;;;;;;;;;5047514;28;20449;-86
2021/05/07 14:36:41;;;;;;;3.50;1.23;;;;;;;;;;5053809;28;20074;-86
2021/05/07 14:39:07;;;;;;;1.50;1.10;;;;;;;;;;5055267;28;20013;-86
2021/05/07 14:41:33;;;;;;;1.73;0.98;;;;;;;;;;5052539;28;20071;-85
2021/05/07 14:43:59;;;;;;;3.33;1.38;;;;;;;;;;5054471;28;20575;-86